sensor_id;sensor_type;location;lat;lon;timestamp;temperature;humidity
65419;DHT22;52027;50.658;14.004;2023-02-11T00:01:19;22.54;29.41
65419;DHT22;52027;50.658;14.004;2023-02-11T00:03:45;22.55;29.39
65419;DHT22;52027;50.658;14.004;2023-02-11T00:06:10;22.51;29.47
65419;DHT22;52027;50.658;14.004;2023-02-11T00:08:36;22.51;29.42
65419;DHT22;52027;50.658;14.004;2023-02-11T00:11:02;22.52;29.39
65419;DHT22;52027;50.658;14.004;2023-02-11T00:13:28;22.51;29.41
65419;DHT22;52027;50.658;14.004;2023-02-11T00:15:53;22.51;29.38
65419;DHT22;52027;50.658;14.004;2023-02-11T00:18:19;22.51;29.41
65419;DHT22;52027;50.658;14.004;2023-02-11T00:20:45;22.52;29.42
65419;DHT22;52027;50.658;14.004;2023-02-11T00:23:11;22.49;29.36
65419;DHT22;52027;50.658;14.004;2023-02-11T00:25:40;22.52;29.39
65419;DHT22;52027;50.658;14.004;2023-02-11T00:28:06;22.48;29.41
65419;DHT22;52027;50.658;14.004;2023-02-11T00:30:31;22.48;29.34
65419;DHT22;52027;50.658;14.004;2023-02-11T00:32:57;22.49;29.41
65419;DHT22;52027;50.658;14.004;2023-02-11T00:35:22;22.45;29.33
65419;DHT22;52027;50.658;14.004;2023-02-11T00:37:47;22.49;29.36
65419;DHT22;52027;50.658;14.004;2023-02-11T00:40:13;22.49;29.37
65419;DHT22;52027;50.658;14.004;2023-02-11T00:42:40;22.49;29.37
65419;DHT22;52027;50.658;14.004;2023-02-11T00:45:06;22.45;29.36
65419;DHT22;52027;50.658;14.004;2023-02-11T00:47:33;22.48;29.32
65419;DHT22;52027;50.658;14.004;2023-02-11T00:49:59;22.47;29.28
65419;DHT22;52027;50.658;14.004;2023-02-11T00:52:25;22.47;29.34
65419;DHT22;52027;50.658;14.004;2023-02-11T00:54:50;22.47;29.28
65419;DHT22;52027;50.658;14.004;2023-02-11T00:57:15;22.47;29.34
65419;DHT22;52027;50.658;14.004;2023-02-11T00:59:41;22.43;29.31
65419;DHT22;52027;50.658;14.004;2023-02-11T01:02:06;22.45;29.31
65419;DHT22;52027;50.658;14.004;2023-02-11T01:04:31;22.45;29.34
65419;DHT22;52027;50.658;14.004;2023-02-11T01:06:57;22.43;29.31
65419;DHT22;52027;50.658;14.004;2023-02-11T01:09:22;22.45;29.39
65419;DHT22;52027;50.658;14.004;2023-02-11T01:11:47;22.44;29.24
65419;DHT22;52027;50.658;14.004;2023-02-11T01:14:13;22.47;29.32
65419;DHT22;52027;50.658;14.004;2023-02-11T01:16:38;22.41;29.27
65419;DHT22;52027;50.658;14.004;2023-02-11T01:19:04;22.45;29.29
65419;DHT22;52027;50.658;14.004;2023-02-11T01:21:30;22.44;29.31
65419;DHT22;52027;50.658;14.004;2023-02-11T01:23:55;22.45;29.24
65419;DHT22;52027;50.658;14.004;2023-02-11T01:26:20;22.43;29.31
65419;DHT22;52027;50.658;14.004;2023-02-11T01:28:46;22.43;29.26
65419;DHT22;52027;50.658;14.004;2023-02-11T01:31:11;22.41;29.32
65419;DHT22;52027;50.658;14.004;2023-02-11T01:33:38;22.41;29.26
65419;DHT22;52027;50.658;14.004;2023-02-11T01:36:04;22.44;29.26
65419;DHT22;52027;50.658;14.004;2023-02-11T01:38:31;22.44;29.22
65419;DHT22;52027;50.658;14.004;2023-02-11T01:41:06;22.41;29.29
65419;DHT22;52027;50.658;14.004;2023-02-11T01:43:38;22.41;29.22
65419;DHT22;52027;50.658;14.004;2023-02-11T01:48:42;22.37;29.19
65419;DHT22;52027;50.658;14.004;2023-02-11T01:51:12;22.41;29.24
65419;DHT22;52027;50.658;14.004;2023-02-11T01:53:39;22.40;29.26
65419;DHT22;52027;50.658;14.004;2023-02-11T01:56:24;22.41;29.20
65419;DHT22;52027;50.658;14.004;2023-02-11T01:59:14;22.40;29.16
65419;DHT22;52027;50.658;14.004;2023-02-11T02:01:46;22.41;29.24
65419;DHT22;52027;50.658;14.004;2023-02-11T02:04:16;22.41;29.24
65419;DHT22;52027;50.658;14.004;2023-02-11T02:06:48;22.43;29.24
65419;DHT22;52027;50.658;14.004;2023-02-11T02:09:37;22.41;29.21
65419;DHT22;52027;50.658;14.004;2023-02-11T02:12:04;22.41;29.16
65419;DHT22;52027;50.658;14.004;2023-02-11T02:14:29;22.40;29.18
65419;DHT22;52027;50.658;14.004;2023-02-11T02:16:55;22.40;29.19
65419;DHT22;52027;50.658;14.004;2023-02-11T02:22:33;22.40;29.26
65419;DHT22;52027;50.658;14.004;2023-02-11T02:28:29;22.38;29.16
65419;DHT22;52027;50.658;14.004;2023-02-11T02:31:30;22.40;29.18
65419;DHT22;52027;50.658;14.004;2023-02-11T02:34:01;22.36;29.21
65419;DHT22;52027;50.658;14.004;2023-02-11T02:36:36;22.36;29.20
65419;DHT22;52027;50.658;14.004;2023-02-11T02:39:10;22.37;29.24
65419;DHT22;52027;50.658;14.004;2023-02-11T02:41:37;22.38;29.19
65419;DHT22;52027;50.658;14.004;2023-02-11T02:44:03;22.36;29.19
65419;DHT22;52027;50.658;14.004;2023-02-11T02:46:31;22.37;29.13
65419;DHT22;52027;50.658;14.004;2023-02-11T02:48:58;22.40;29.19
65419;DHT22;52027;50.658;14.004;2023-02-11T03:02:15;22.37;29.11
65419;DHT22;52027;50.658;14.004;2023-02-11T03:04:51;22.37;29.14
65419;DHT22;52027;50.658;14.004;2023-02-11T03:10:25;22.38;29.13
65419;DHT22;52027;50.658;14.004;2023-02-11T03:12:53;22.38;29.19
65419;DHT22;52027;50.658;14.004;2023-02-11T03:15:20;22.37;29.13
65419;DHT22;52027;50.658;14.004;2023-02-11T03:17:48;22.37;29.10
65419;DHT22;52027;50.658;14.004;2023-02-11T03:20:17;22.37;29.18
65419;DHT22;52027;50.658;14.004;2023-02-11T03:22:53;22.38;29.03
65419;DHT22;52027;50.658;14.004;2023-02-11T03:25:22;22.40;29.08
65419;DHT22;52027;50.658;14.004;2023-02-11T03:33:34;22.36;29.15
65419;DHT22;52027;50.658;14.004;2023-02-11T03:36:07;22.38;29.06
65419;DHT22;52027;50.658;14.004;2023-02-11T03:38:37;22.37;29.08
65419;DHT22;52027;50.658;14.004;2023-02-11T03:41:05;22.36;29.11
65419;DHT22;52027;50.658;14.004;2023-02-11T03:43:46;22.36;29.16
65419;DHT22;52027;50.658;14.004;2023-02-11T03:46:17;22.37;29.05
65419;DHT22;52027;50.658;14.004;2023-02-11T03:48:48;22.36;29.05
65419;DHT22;52027;50.658;14.004;2023-02-11T03:51:15;22.37;29.10
65419;DHT22;52027;50.658;14.004;2023-02-11T03:53:44;22.37;29.05
65419;DHT22;52027;50.658;14.004;2023-02-11T03:56:14;22.36;29.05
65419;DHT22;52027;50.658;14.004;2023-02-11T03:58:43;22.36;29.00
65419;DHT22;52027;50.658;14.004;2023-02-11T04:01:09;22.34;29.09
65419;DHT22;52027;50.658;14.004;2023-02-11T04:03:34;22.33;29.06
65419;DHT22;52027;50.658;14.004;2023-02-11T04:06:00;22.34;29.09
65419;DHT22;52027;50.658;14.004;2023-02-11T04:08:25;22.33;29.00
65419;DHT22;52027;50.658;14.004;2023-02-11T04:10:50;22.34;29.06
65419;DHT22;52027;50.658;14.004;2023-02-11T04:13:16;22.34;29.05
65419;DHT22;52027;50.658;14.004;2023-02-11T04:15:41;22.33;29.08
65419;DHT22;52027;50.658;14.004;2023-02-11T04:18:07;22.36;29.08
65419;DHT22;52027;50.658;14.004;2023-02-11T04:20:32;22.31;29.06
65419;DHT22;52027;50.658;14.004;2023-02-11T04:22:57;22.34;29.09
65419;DHT22;52027;50.658;14.004;2023-02-11T04:25:23;22.31;29.06
65419;DHT22;52027;50.658;14.004;2023-02-11T04:27:50;22.34;29.01
65419;DHT22;52027;50.658;14.004;2023-02-11T04:30:15;22.31;29.05
65419;DHT22;52027;50.658;14.004;2023-02-11T04:32:40;22.30;29.07
65419;DHT22;52027;50.658;14.004;2023-02-11T04:35:06;22.31;29.03
65419;DHT22;52027;50.658;14.004;2023-02-11T04:37:31;22.31;29.04
65419;DHT22;52027;50.658;14.004;2023-02-11T04:39:56;22.30;29.04
65419;DHT22;52027;50.658;14.004;2023-02-11T04:42:22;22.28;29.09
65419;DHT22;52027;50.658;14.004;2023-02-11T04:44:47;22.30;29.09
65419;DHT22;52027;50.658;14.004;2023-02-11T04:47:13;22.30;29.12
65419;DHT22;52027;50.658;14.004;2023-02-11T04:49:40;22.25;29.07
65419;DHT22;52027;50.658;14.004;2023-02-11T04:52:05;22.27;29.06
65419;DHT22;52027;50.658;14.004;2023-02-11T04:54:31;22.28;29.06
65419;DHT22;52027;50.658;14.004;2023-02-11T04:56:56;22.30;29.03
65419;DHT22;52027;50.658;14.004;2023-02-11T04:59:21;22.28;29.04
65419;DHT22;52027;50.658;14.004;2023-02-11T05:01:47;22.28;29.07
65419;DHT22;52027;50.658;14.004;2023-02-11T05:04:13;22.30;29.09
65419;DHT22;52027;50.658;14.004;2023-02-11T05:06:38;22.30;29.01
65419;DHT22;52027;50.658;14.004;2023-02-11T05:09:04;22.27;29.04
65419;DHT22;52027;50.658;14.004;2023-02-11T05:11:30;22.27;29.06
65419;DHT22;52027;50.658;14.004;2023-02-11T05:13:55;22.28;29.03
65419;DHT22;52027;50.658;14.004;2023-02-11T05:16:20;22.25;29.07
65419;DHT22;52027;50.658;14.004;2023-02-11T05:18:46;22.27;29.10
65419;DHT22;52027;50.658;14.004;2023-02-11T05:21:14;22.27;29.10
65419;DHT22;52027;50.658;14.004;2023-02-11T05:23:40;22.25;29.04
65419;DHT22;52027;50.658;14.004;2023-02-11T05:26:06;22.25;29.10
65419;DHT22;52027;50.658;14.004;2023-02-11T05:28:32;22.24;29.04
65419;DHT22;52027;50.658;14.004;2023-02-11T05:30:59;22.27;29.07
65419;DHT22;52027;50.658;14.004;2023-02-11T05:33:24;22.24;29.04
65419;DHT22;52027;50.658;14.004;2023-02-11T05:35:50;22.25;29.10
65419;DHT22;52027;50.658;14.004;2023-02-11T05:38:15;22.22;29.02
65419;DHT22;52027;50.658;14.004;2023-02-11T05:40:41;22.24;29.06
65419;DHT22;52027;50.658;14.004;2023-02-11T05:43:07;22.24;29.04
65419;DHT22;52027;50.658;14.004;2023-02-11T05:45:32;22.24;29.13
65419;DHT22;52027;50.658;14.004;2023-02-11T05:47:57;22.25;29.09
65419;DHT22;52027;50.658;14.004;2023-02-11T05:50:23;22.24;29.06
65419;DHT22;52027;50.658;14.004;2023-02-11T05:52:48;22.22;29.02
65419;DHT22;52027;50.658;14.004;2023-02-11T05:55:14;22.24;29.10
65419;DHT22;52027;50.658;14.004;2023-02-11T05:57:39;22.22;29.04
65419;DHT22;52027;50.658;14.004;2023-02-11T06:00:05;22.21;29.04
65419;DHT22;52027;50.658;14.004;2023-02-11T06:02:31;22.21;29.04
65419;DHT22;52027;50.658;14.004;2023-02-11T06:04:56;22.21;28.99
65419;DHT22;52027;50.658;14.004;2023-02-11T06:07:22;22.24;29.02
65419;DHT22;52027;50.658;14.004;2023-02-11T06:09:47;22.20;29.08
65419;DHT22;52027;50.658;14.004;2023-02-11T06:12:12;22.20;29.01
65419;DHT22;52027;50.658;14.004;2023-02-11T06:14:38;22.20;29.07
65419;DHT22;52027;50.658;14.004;2023-02-11T06:17:03;22.22;29.02
65419;DHT22;52027;50.658;14.004;2023-02-11T06:19:29;22.20;29.04
65419;DHT22;52027;50.658;14.004;2023-02-11T06:21:55;22.20;29.02
65419;DHT22;52027;50.658;14.004;2023-02-11T06:24:21;22.20;29.05
65419;DHT22;52027;50.658;14.004;2023-02-11T06:26:47;22.18;29.04
65419;DHT22;52027;50.658;14.004;2023-02-11T06:29:12;22.20;29.08
65419;DHT22;52027;50.658;14.004;2023-02-11T06:31:38;22.18;29.04
65419;DHT22;52027;50.658;14.004;2023-02-11T06:34:03;22.21;29.05
65419;DHT22;52027;50.658;14.004;2023-02-11T06:36:29;22.20;29.04
65419;DHT22;52027;50.658;14.004;2023-02-11T06:38:54;22.18;29.08
65419;DHT22;52027;50.658;14.004;2023-02-11T06:41:20;22.20;29.06
65419;DHT22;52027;50.658;14.004;2023-02-11T06:43:45;22.17;29.04
65419;DHT22;52027;50.658;14.004;2023-02-11T06:46:11;22.17;29.06
65419;DHT22;52027;50.658;14.004;2023-02-11T06:48:37;22.16;29.10
65419;DHT22;52027;50.658;14.004;2023-02-11T06:51:04;22.17;29.10
65419;DHT22;52027;50.658;14.004;2023-02-11T06:53:33;22.20;29.10
65419;DHT22;52027;50.658;14.004;2023-02-11T06:56:04;22.18;29.11
65419;DHT22;52027;50.658;14.004;2023-02-11T06:58:30;22.17;29.07
65419;DHT22;52027;50.658;14.004;2023-02-11T07:00:56;22.16;29.06
65419;DHT22;52027;50.658;14.004;2023-02-11T07:03:21;22.20;29.10
65419;DHT22;52027;50.658;14.004;2023-02-11T07:05:46;22.14;29.10
65419;DHT22;52027;50.658;14.004;2023-02-11T07:08:12;22.14;29.05
65419;DHT22;52027;50.658;14.004;2023-02-11T07:10:37;22.14;29.13
65419;DHT22;52027;50.658;14.004;2023-02-11T07:13:04;22.16;29.10
65419;DHT22;52027;50.658;14.004;2023-02-11T07:15:29;22.16;29.12
65419;DHT22;52027;50.658;14.004;2023-02-11T07:17:54;22.16;29.08
65419;DHT22;52027;50.658;14.004;2023-02-11T07:20:20;22.16;29.10
65419;DHT22;52027;50.658;14.004;2023-02-11T07:22:45;22.16;29.11
65419;DHT22;52027;50.658;14.004;2023-02-11T07:25:10;22.14;29.06
65419;DHT22;52027;50.658;14.004;2023-02-11T07:27:36;22.16;29.06
65419;DHT22;52027;50.658;14.004;2023-02-11T07:30:01;22.16;29.10
65419;DHT22;52027;50.658;14.004;2023-02-11T07:32:26;22.14;29.03
65419;DHT22;52027;50.658;14.004;2023-02-11T07:34:52;22.17;29.08
65419;DHT22;52027;50.658;14.004;2023-02-11T07:37:18;22.16;29.11
65419;DHT22;52027;50.658;14.004;2023-02-11T07:39:44;22.17;29.06
65419;DHT22;52027;50.658;14.004;2023-02-11T07:42:09;22.18;29.05
65419;DHT22;52027;50.658;14.004;2023-02-11T07:44:34;22.17;29.10
65419;DHT22;52027;50.658;14.004;2023-02-11T07:47:01;22.17;29.08
65419;DHT22;52027;50.658;14.004;2023-02-11T07:49:26;22.18;29.05
65419;DHT22;52027;50.658;14.004;2023-02-11T07:51:52;22.18;29.02
65419;DHT22;52027;50.658;14.004;2023-02-11T07:54:17;22.17;29.07
65419;DHT22;52027;50.658;14.004;2023-02-11T07:56:42;22.18;29.05
65419;DHT22;52027;50.658;14.004;2023-02-11T07:59:09;22.20;28.97
65419;DHT22;52027;50.658;14.004;2023-02-11T08:01:35;22.20;29.02
65419;DHT22;52027;50.658;14.004;2023-02-11T08:04:01;22.18;29.03
65419;DHT22;52027;50.658;14.004;2023-02-11T08:06:30;22.21;28.97
65419;DHT22;52027;50.658;14.004;2023-02-11T08:08:55;22.20;29.05
65419;DHT22;52027;50.658;14.004;2023-02-11T08:11:25;22.20;28.97
65419;DHT22;52027;50.658;14.004;2023-02-11T08:13:52;22.18;29.00
65419;DHT22;52027;50.658;14.004;2023-02-11T08:16:29;22.18;29.00
65419;DHT22;52027;50.658;14.004;2023-02-11T08:18:57;22.18;28.99
65419;DHT22;52027;50.658;14.004;2023-02-11T08:21:23;22.20;28.99
65419;DHT22;52027;50.658;14.004;2023-02-11T08:23:49;22.20;29.00
65419;DHT22;52027;50.658;14.004;2023-02-11T08:26:19;22.17;29.04
65419;DHT22;52027;50.658;14.004;2023-02-11T08:28:47;22.17;28.95
65419;DHT22;52027;50.658;14.004;2023-02-11T08:31:24;22.20;28.99
65419;DHT22;52027;50.658;14.004;2023-02-11T08:33:51;22.20;28.99
65419;DHT22;52027;50.658;14.004;2023-02-11T08:36:20;22.18;29.08
65419;DHT22;52027;50.658;14.004;2023-02-11T08:38:46;22.18;29.02
65419;DHT22;52027;50.658;14.004;2023-02-11T08:41:12;22.20;29.02
65419;DHT22;52027;50.658;14.004;2023-02-11T08:43:39;22.18;28.96
65419;DHT22;52027;50.658;14.004;2023-02-11T08:46:06;22.20;29.00
65419;DHT22;52027;50.658;14.004;2023-02-11T08:48:32;22.18;29.05
65419;DHT22;52027;50.658;14.004;2023-02-11T08:50:57;22.20;29.01
65419;DHT22;52027;50.658;14.004;2023-02-11T08:53:22;22.20;28.97
65419;DHT22;52027;50.658;14.004;2023-02-11T08:55:52;22.21;28.97
65419;DHT22;52027;50.658;14.004;2023-02-11T08:58:18;22.18;28.99
65419;DHT22;52027;50.658;14.004;2023-02-11T09:00:45;22.18;29.04
65419;DHT22;52027;50.658;14.004;2023-02-11T09:03:11;22.18;28.97
65419;DHT22;52027;50.658;14.004;2023-02-11T09:05:45;22.18;28.99
65419;DHT22;52027;50.658;14.004;2023-02-11T09:08:10;22.21;28.97
65419;DHT22;52027;50.658;14.004;2023-02-11T09:10:36;22.18;28.97
65419;DHT22;52027;50.658;14.004;2023-02-11T09:13:01;22.17;28.95
65419;DHT22;52027;50.658;14.004;2023-02-11T09:15:27;22.21;28.97
65419;DHT22;52027;50.658;14.004;2023-02-11T09:17:52;22.21;28.95
65419;DHT22;52027;50.658;14.004;2023-02-11T09:20:18;22.22;29.02
65419;DHT22;52027;50.658;14.004;2023-02-11T09:22:43;22.21;28.99
65419;DHT22;52027;50.658;14.004;2023-02-11T09:25:09;22.21;28.92
65419;DHT22;52027;50.658;14.004;2023-02-11T09:27:35;22.22;28.96
65419;DHT22;52027;50.658;14.004;2023-02-11T09:30:00;22.21;28.95
65419;DHT22;52027;50.658;14.004;2023-02-11T09:32:25;22.20;28.97
65419;DHT22;52027;50.658;14.004;2023-02-11T09:34:51;22.21;28.94
65419;DHT22;52027;50.658;14.004;2023-02-11T09:37:16;22.21;28.95
65419;DHT22;52027;50.658;14.004;2023-02-11T09:39:41;22.21;28.94
65419;DHT22;52027;50.658;14.004;2023-02-11T09:44:37;22.22;28.99
65419;DHT22;52027;50.658;14.004;2023-02-11T09:49:45;22.20;29.01
65419;DHT22;52027;50.658;14.004;2023-02-11T09:52:35;22.21;28.96
65419;DHT22;52027;50.658;14.004;2023-02-11T09:55:05;22.21;29.02
65419;DHT22;52027;50.658;14.004;2023-02-11T09:57:36;22.20;29.01
65419;DHT22;52027;50.658;14.004;2023-02-11T10:00:16;22.18;28.95
65419;DHT22;52027;50.658;14.004;2023-02-11T10:11:14;22.21;29.03
65419;DHT22;52027;50.658;14.004;2023-02-11T10:13:50;22.20;28.97
65419;DHT22;52027;50.658;14.004;2023-02-11T10:22:21;22.20;28.96
65419;DHT22;52027;50.658;14.004;2023-02-11T10:24:53;22.24;28.96
65419;DHT22;52027;50.658;14.004;2023-02-11T10:27:20;22.21;28.97
65419;DHT22;52027;50.658;14.004;2023-02-11T10:29:52;22.25;28.95
65419;DHT22;52027;50.658;14.004;2023-02-11T10:33:05;22.21;28.91
65419;DHT22;52027;50.658;14.004;2023-02-11T10:35:36;22.21;28.88
65419;DHT22;52027;50.658;14.004;2023-02-11T10:38:02;22.22;28.94
65419;DHT22;52027;50.658;14.004;2023-02-11T10:40:29;22.20;28.92
65419;DHT22;52027;50.658;14.004;2023-02-11T10:42:58;22.21;28.94
65419;DHT22;52027;50.658;14.004;2023-02-11T10:45:31;22.22;28.96
65419;DHT22;52027;50.658;14.004;2023-02-11T10:47:57;22.24;28.89
65419;DHT22;52027;50.658;14.004;2023-02-11T10:50:29;22.21;28.92
65419;DHT22;52027;50.658;14.004;2023-02-11T10:53:17;22.24;28.92
65419;DHT22;52027;50.658;14.004;2023-02-11T10:55:56;22.21;28.93
65419;DHT22;52027;50.658;14.004;2023-02-11T10:58:28;22.22;28.88
65419;DHT22;52027;50.658;14.004;2023-02-11T11:00:57;22.21;28.97
65419;DHT22;52027;50.658;14.004;2023-02-11T11:03:25;22.18;29.02
65419;DHT22;52027;50.658;14.004;2023-02-11T11:05:59;22.21;28.96
65419;DHT22;52027;50.658;14.004;2023-02-11T11:08:49;22.21;28.99
65419;DHT22;52027;50.658;14.004;2023-02-11T11:11:17;22.21;28.93
65419;DHT22;52027;50.658;14.004;2023-02-11T11:16:22;22.22;28.96
65419;DHT22;52027;50.658;14.004;2023-02-11T11:18:51;22.24;29.04
65419;DHT22;52027;50.658;14.004;2023-02-11T11:21:25;22.22;28.95
65419;DHT22;52027;50.658;14.004;2023-02-11T11:24:00;22.22;28.90
65419;DHT22;52027;50.658;14.004;2023-02-11T11:26:46;22.25;28.94
65419;DHT22;52027;50.658;14.004;2023-02-11T11:29:23;22.22;28.96
65419;DHT22;52027;50.658;14.004;2023-02-11T11:31:56;22.21;28.93
65419;DHT22;52027;50.658;14.004;2023-02-11T11:34:32;22.22;28.94
65419;DHT22;52027;50.658;14.004;2023-02-11T11:37:01;22.22;28.95
65419;DHT22;52027;50.658;14.004;2023-02-11T11:39:34;22.25;28.91
65419;DHT22;52027;50.658;14.004;2023-02-11T11:42:01;22.21;28.99
65419;DHT22;52027;50.658;14.004;2023-02-11T11:44:36;22.24;28.93
65419;DHT22;52027;50.658;14.004;2023-02-11T11:49:54;22.24;28.95
65419;DHT22;52027;50.658;14.004;2023-02-11T11:52:43;22.24;28.93
65419;DHT22;52027;50.658;14.004;2023-02-11T11:55:23;22.27;28.93
65419;DHT22;52027;50.658;14.004;2023-02-11T11:57:49;22.25;28.91
65419;DHT22;52027;50.658;14.004;2023-02-11T12:00:40;22.27;28.98
65419;DHT22;52027;50.658;14.004;2023-02-11T12:06:43;22.27;28.93
65419;DHT22;52027;50.658;14.004;2023-02-11T12:09:18;22.25;28.90
65419;DHT22;52027;50.658;14.004;2023-02-11T12:23:04;22.28;29.00
65419;DHT22;52027;50.658;14.004;2023-02-11T12:25:57;22.31;28.91
65419;DHT22;52027;50.658;14.004;2023-02-11T12:40:12;22.33;28.87
65419;DHT22;52027;50.658;14.004;2023-02-11T12:43:03;22.36;28.90
65419;DHT22;52027;50.658;14.004;2023-02-11T12:49:01;22.36;28.87
65419;DHT22;52027;50.658;14.004;2023-02-11T12:51:54;22.37;28.88
65419;DHT22;52027;50.658;14.004;2023-02-11T12:54:39;22.37;28.83
65419;DHT22;52027;50.658;14.004;2023-02-11T12:57:17;22.38;28.86
65419;DHT22;52027;50.658;14.004;2023-02-11T12:59:52;22.38;28.86
65419;DHT22;52027;50.658;14.004;2023-02-11T13:02:32;22.37;28.88
65419;DHT22;52027;50.658;14.004;2023-02-11T13:05:03;22.40;28.83
65419;DHT22;52027;50.658;14.004;2023-02-11T13:07:34;22.38;28.83
65419;DHT22;52027;50.658;14.004;2023-02-11T13:12:49;22.38;28.78
65419;DHT22;52027;50.658;14.004;2023-02-11T13:15:34;22.41;28.78
65419;DHT22;52027;50.658;14.004;2023-02-11T13:18:05;22.41;28.81
65419;DHT22;52027;50.658;14.004;2023-02-11T13:26:22;22.41;28.75
65419;DHT22;52027;50.658;14.004;2023-02-11T13:28:56;22.41;28.77
65419;DHT22;52027;50.658;14.004;2023-02-11T13:31:24;22.40;28.80
65419;DHT22;52027;50.658;14.004;2023-02-11T13:33:51;22.41;28.82
65419;DHT22;52027;50.658;14.004;2023-02-11T13:36:27;22.41;28.80
65419;DHT22;52027;50.658;14.004;2023-02-11T13:39:20;22.41;28.84
65419;DHT22;52027;50.658;14.004;2023-02-11T13:41:46;22.37;28.84
65419;DHT22;52027;50.658;14.004;2023-02-11T13:46:58;22.38;28.86
65419;DHT22;52027;50.658;14.004;2023-02-11T13:51:56;22.38;28.86
65419;DHT22;52027;50.658;14.004;2023-02-11T13:54:27;22.37;28.86
65419;DHT22;52027;50.658;14.004;2023-02-11T14:02:26;22.34;28.89
65419;DHT22;52027;50.658;14.004;2023-02-11T14:11:03;22.30;28.92
65419;DHT22;52027;50.658;14.004;2023-02-11T14:16:26;22.27;28.93
65419;DHT22;52027;50.658;14.004;2023-02-11T14:21:28;22.25;28.95
65419;DHT22;52027;50.658;14.004;2023-02-11T14:26:45;22.24;29.02
65419;DHT22;52027;50.658;14.004;2023-02-11T14:29:15;22.22;29.01
65419;DHT22;52027;50.658;14.004;2023-02-11T14:32:03;22.21;29.02
65419;DHT22;52027;50.658;14.004;2023-02-11T14:42:24;22.18;29.06
65419;DHT22;52027;50.658;14.004;2023-02-11T14:44:53;22.17;29.08
65419;DHT22;52027;50.658;14.004;2023-02-11T14:47:29;22.16;29.11
65419;DHT22;52027;50.658;14.004;2023-02-11T14:49:59;22.14;29.08
65419;DHT22;52027;50.658;14.004;2023-02-11T14:52:28;22.16;29.05
65419;DHT22;52027;50.658;14.004;2023-02-11T14:58:13;22.11;29.11
65419;DHT22;52027;50.658;14.004;2023-02-11T15:03:42;22.06;29.20
65419;DHT22;52027;50.658;14.004;2023-02-11T15:06:17;22.07;29.15
65419;DHT22;52027;50.658;14.004;2023-02-11T15:08:50;22.03;29.23
65419;DHT22;52027;50.658;14.004;2023-02-11T15:11:17;22.01;29.21
65419;DHT22;52027;50.658;14.004;2023-02-11T15:13:44;22.01;29.22
65419;DHT22;52027;50.658;14.004;2023-02-11T15:16:15;22.00;29.24
65419;DHT22;52027;50.658;14.004;2023-02-11T15:18:46;22.00;29.32
65419;DHT22;52027;50.658;14.004;2023-02-11T15:21:22;21.96;29.28
65419;DHT22;52027;50.658;14.004;2023-02-11T15:24:04;21.94;29.30
65419;DHT22;52027;50.658;14.004;2023-02-11T15:26:32;21.96;29.23
65419;DHT22;52027;50.658;14.004;2023-02-11T15:28:58;21.93;29.32
65419;DHT22;52027;50.658;14.004;2023-02-11T15:31:25;21.93;29.31
65419;DHT22;52027;50.658;14.004;2023-02-11T15:33:52;21.90;29.33
65419;DHT22;52027;50.658;14.004;2023-02-11T15:36:22;21.86;29.36
65419;DHT22;52027;50.658;14.004;2023-02-11T15:39:15;21.86;29.37
65419;DHT22;52027;50.658;14.004;2023-02-11T15:41:41;21.83;29.36
65419;DHT22;52027;50.658;14.004;2023-02-11T15:44:28;21.83;29.42
65419;DHT22;52027;50.658;14.004;2023-02-11T15:46:54;21.80;29.43
65419;DHT22;52027;50.658;14.004;2023-02-11T15:49:19;21.79;29.44
65419;DHT22;52027;50.658;14.004;2023-02-11T15:51:45;21.79;29.46
65419;DHT22;52027;50.658;14.004;2023-02-11T15:54:18;21.79;29.48
65419;DHT22;52027;50.658;14.004;2023-02-11T15:56:46;21.75;29.50
65419;DHT22;52027;50.658;14.004;2023-02-11T15:59:33;21.73;29.49
65419;DHT22;52027;50.658;14.004;2023-02-11T16:02:08;21.73;29.58
65419;DHT22;52027;50.658;14.004;2023-02-11T16:04:34;21.71;29.53
65419;DHT22;52027;50.658;14.004;2023-02-11T16:07:00;21.69;29.60
65419;DHT22;52027;50.658;14.004;2023-02-11T16:09:35;21.67;29.63
65419;DHT22;52027;50.658;14.004;2023-02-11T16:12:04;21.65;29.66
65419;DHT22;52027;50.658;14.004;2023-02-11T16:14:33;21.65;29.63
65419;DHT22;52027;50.658;14.004;2023-02-11T16:17:09;21.63;29.61
65419;DHT22;52027;50.658;14.004;2023-02-11T16:19:40;21.65;29.66
65419;DHT22;52027;50.658;14.004;2023-02-11T16:22:09;21.62;29.64
65419;DHT22;52027;50.658;14.004;2023-02-11T16:24:36;21.63;29.67
65419;DHT22;52027;50.658;14.004;2023-02-11T16:27:19;21.61;29.70
65419;DHT22;52027;50.658;14.004;2023-02-11T16:29:47;21.58;29.68
65419;DHT22;52027;50.658;14.004;2023-02-11T16:34:43;21.53;29.69
65419;DHT22;52027;50.658;14.004;2023-02-11T16:37:09;21.53;29.79
65419;DHT22;52027;50.658;14.004;2023-02-11T16:39:34;21.56;29.77
65419;DHT22;52027;50.658;14.004;2023-02-11T16:42:00;21.56;29.74
65419;DHT22;52027;50.658;14.004;2023-02-11T16:44:26;21.52;29.82
65419;DHT22;52027;50.658;14.004;2023-02-11T16:46:52;21.51;29.85
65419;DHT22;52027;50.658;14.004;2023-02-11T16:49:27;21.49;29.80
65419;DHT22;52027;50.658;14.004;2023-02-11T16:51:59;21.46;29.88
65419;DHT22;52027;50.658;14.004;2023-02-11T16:54:28;21.48;29.87
65419;DHT22;52027;50.658;14.004;2023-02-11T16:56:54;21.48;29.86
65419;DHT22;52027;50.658;14.004;2023-02-11T16:59:20;21.45;29.91
65419;DHT22;52027;50.658;14.004;2023-02-11T17:01:47;21.44;29.94
65419;DHT22;52027;50.658;14.004;2023-02-11T17:04:24;21.44;29.91
65419;DHT22;52027;50.658;14.004;2023-02-11T17:06:50;21.42;29.95
65419;DHT22;52027;50.658;14.004;2023-02-11T17:09:23;21.42;29.91
65419;DHT22;52027;50.658;14.004;2023-02-11T17:11:49;21.42;29.91
65419;DHT22;52027;50.658;14.004;2023-02-11T17:14:15;21.39;29.96
65419;DHT22;52027;50.658;14.004;2023-02-11T17:16:41;21.38;30.01
65419;DHT22;52027;50.658;14.004;2023-02-11T17:19:11;21.37;29.98
65419;DHT22;52027;50.658;14.004;2023-02-11T17:21:40;21.38;30.00
65419;DHT22;52027;50.658;14.004;2023-02-11T17:24:06;21.39;30.01
65419;DHT22;52027;50.658;14.004;2023-02-11T17:26:31;21.37;30.03
65419;DHT22;52027;50.658;14.004;2023-02-11T17:28:56;21.37;30.06
65419;DHT22;52027;50.658;14.004;2023-02-11T17:31:22;21.37;30.06
65419;DHT22;52027;50.658;14.004;2023-02-11T17:33:47;21.32;30.07
65419;DHT22;52027;50.658;14.004;2023-02-11T17:36:12;21.32;30.10
65419;DHT22;52027;50.658;14.004;2023-02-11T17:38:38;21.32;30.06
65419;DHT22;52027;50.658;14.004;2023-02-11T17:41:03;21.31;30.10